sensor_id;sensor_type;location;lat;lon;timestamp;temperature;humidity
23637;DHT22;11995;50.842;4.456;2022-09-17T00:02:16;10.90;99.90
23637;DHT22;11995;50.842;4.456;2022-09-17T00:04:43;10.80;99.90
23637;DHT22;11995;50.842;4.456;2022-09-17T00:07:09;10.80;99.90
23637;DHT22;11995;50.842;4.456;2022-09-17T00:09:36;10.90;99.90
23637;DHT22;11995;50.842;4.456;2022-09-17T00:12:04;10.90;99.90
23637;DHT22;11995;50.842;4.456;2022-09-17T00:14:30;10.90;99.90
23637;DHT22;11995;50.842;4.456;2022-09-17T00:16:57;10.90;99.90
23637;DHT22;11995;50.842;4.456;2022-09-17T00:19:24;10.90;99.90
23637;DHT22;11995;50.842;4.456;2022-09-17T00:21:51;10.90;99.90
23637;DHT22;11995;50.842;4.456;2022-09-17T00:24:18;11.00;99.90
23637;DHT22;11995;50.842;4.456;2022-09-17T00:26:46;10.90;99.90
23637;DHT22;11995;50.842;4.456;2022-09-17T00:29:13;11.00;99.90
23637;DHT22;11995;50.842;4.456;2022-09-17T00:31:40;11.10;99.90
23637;DHT22;11995;50.842;4.456;2022-09-17T00:34:08;11.00;99.90
23637;DHT22;11995;50.842;4.456;2022-09-17T00:36:37;11.10;99.90
23637;DHT22;11995;50.842;4.456;2022-09-17T00:39:04;11.00;99.90
23637;DHT22;11995;50.842;4.456;2022-09-17T00:41:32;11.10;99.90
23637;DHT22;11995;50.842;4.456;2022-09-17T00:44:01;11.20;99.90
23637;DHT22;11995;50.842;4.456;2022-09-17T00:46:33;11.30;99.90
23637;DHT22;11995;50.842;4.456;2022-09-17T00:49:10;11.10;99.90
23637;DHT22;11995;50.842;4.456;2022-09-17T00:51:43;11.10;99.90
23637;DHT22;11995;50.842;4.456;2022-09-17T00:54:09;11.00;99.90
23637;DHT22;11995;50.842;4.456;2022-09-17T00:56:39;10.90;99.90
23637;DHT22;11995;50.842;4.456;2022-09-17T00:59:08;10.80;99.90
23637;DHT22;11995;50.842;4.456;2022-09-17T01:01:35;10.70;99.90
23637;DHT22;11995;50.842;4.456;2022-09-17T01:04:02;10.80;99.90
23637;DHT22;11995;50.842;4.456;2022-09-17T01:06:33;10.80;99.90
23637;DHT22;11995;50.842;4.456;2022-09-17T01:11:39;10.80;99.90
23637;DHT22;11995;50.842;4.456;2022-09-17T01:14:13;10.80;99.90
23637;DHT22;11995;50.842;4.456;2022-09-17T01:16:43;10.70;99.90
23637;DHT22;11995;50.842;4.456;2022-09-17T01:21:43;10.80;99.90
23637;DHT22;11995;50.842;4.456;2022-09-17T01:27:01;10.80;99.90
23637;DHT22;11995;50.842;4.456;2022-09-17T01:29:29;10.90;99.90
23637;DHT22;11995;50.842;4.456;2022-09-17T01:31:52;11.00;99.90
23637;DHT22;11995;50.842;4.456;2022-09-17T01:34:39;11.00;99.90
23637;DHT22;11995;50.842;4.456;2022-09-17T01:37:00;11.00;99.90
23637;DHT22;11995;50.842;4.456;2022-09-17T01:42:18;11.20;99.90
23637;DHT22;11995;50.842;4.456;2022-09-17T01:44:44;11.20;99.90
23637;DHT22;11995;50.842;4.456;2022-09-17T01:47:11;11.30;99.90
23637;DHT22;11995;50.842;4.456;2022-09-17T01:49:37;11.30;99.90
23637;DHT22;11995;50.842;4.456;2022-09-17T01:52:05;11.40;99.90
23637;DHT22;11995;50.842;4.456;2022-09-17T01:54:34;11.40;99.90
23637;DHT22;11995;50.842;4.456;2022-09-17T01:57:07;11.40;99.90
23637;DHT22;11995;50.842;4.456;2022-09-17T01:59:31;11.50;99.90
23637;DHT22;11995;50.842;4.456;2022-09-17T02:02:40;11.50;99.90
23637;DHT22;11995;50.842;4.456;2022-09-17T02:04:29;11.50;99.90
23637;DHT22;11995;50.842;4.456;2022-09-17T02:07:09;11.60;99.90
23637;DHT22;11995;50.842;4.456;2022-09-17T02:09:36;11.60;99.90
23637;DHT22;11995;50.842;4.456;2022-09-17T02:12:04;11.50;99.90
23637;DHT22;11995;50.842;4.456;2022-09-17T02:14:34;11.40;99.90
23637;DHT22;11995;50.842;4.456;2022-09-17T02:17:06;11.40;99.90
23637;DHT22;11995;50.842;4.456;2022-09-17T02:19:37;11.40;99.90
23637;DHT22;11995;50.842;4.456;2022-09-17T02:24:36;11.60;99.90
23637;DHT22;11995;50.842;4.456;2022-09-17T02:27:04;11.60;99.90
23637;DHT22;11995;50.842;4.456;2022-09-17T02:29:31;11.50;99.90
23637;DHT22;11995;50.842;4.456;2022-09-17T02:32:00;11.40;99.90
23637;DHT22;11995;50.842;4.456;2022-09-17T02:34:27;11.40;99.90
23637;DHT22;11995;50.842;4.456;2022-09-17T02:36:54;11.50;99.90
23637;DHT22;11995;50.842;4.456;2022-09-17T02:39:23;11.40;99.90
23637;DHT22;11995;50.842;4.456;2022-09-17T02:49:40;11.60;99.90
23637;DHT22;11995;50.842;4.456;2022-09-17T02:52:16;11.60;99.90
23637;DHT22;11995;50.842;4.456;2022-09-17T02:57:15;11.60;99.90
23637;DHT22;11995;50.842;4.456;2022-09-17T02:59:45;11.40;99.90
23637;DHT22;11995;50.842;4.456;2022-09-17T03:02:21;11.30;99.90
23637;DHT22;11995;50.842;4.456;2022-09-17T03:04:48;11.30;99.90
23637;DHT22;11995;50.842;4.456;2022-09-17T03:07:15;11.30;99.90
23637;DHT22;11995;50.842;4.456;2022-09-17T03:09:43;11.40;99.90
23637;DHT22;11995;50.842;4.456;2022-09-17T03:12:10;11.50;99.90
23637;DHT22;11995;50.842;4.456;2022-09-17T03:14:58;11.50;99.90
23637;DHT22;11995;50.842;4.456;2022-09-17T03:17:24;11.60;99.90
23637;DHT22;11995;50.842;4.456;2022-09-17T03:19:51;11.60;99.90
23637;DHT22;11995;50.842;4.456;2022-09-17T03:22:18;11.60;99.90
23637;DHT22;11995;50.842;4.456;2022-09-17T03:24:45;11.50;99.90
23637;DHT22;11995;50.842;4.456;2022-09-17T03:27:12;11.40;99.90
23637;DHT22;11995;50.842;4.456;2022-09-17T03:29:38;11.30;99.90
23637;DHT22;11995;50.842;4.456;2022-09-17T03:32:05;11.30;99.90
23637;DHT22;11995;50.842;4.456;2022-09-17T03:34:33;11.30;99.90
23637;DHT22;11995;50.842;4.456;2022-09-17T03:37:00;11.30;99.90
23637;DHT22;11995;50.842;4.456;2022-09-17T03:39:27;11.30;99.90
23637;DHT22;11995;50.842;4.456;2022-09-17T03:41:54;11.30;99.90
23637;DHT22;11995;50.842;4.456;2022-09-17T03:44:21;11.40;99.90
23637;DHT22;11995;50.842;4.456;2022-09-17T03:46:49;11.30;99.90
23637;DHT22;11995;50.842;4.456;2022-09-17T03:49:16;11.40;99.90
23637;DHT22;11995;50.842;4.456;2022-09-17T03:51:42;11.40;99.90
23637;DHT22;11995;50.842;4.456;2022-09-17T03:54:10;11.50;99.90
23637;DHT22;11995;50.842;4.456;2022-09-17T03:56:37;11.50;99.90
23637;DHT22;11995;50.842;4.456;2022-09-17T03:59:03;11.40;99.90
23637;DHT22;11995;50.842;4.456;2022-09-17T04:01:30;11.40;99.90
23637;DHT22;11995;50.842;4.456;2022-09-17T04:03:57;11.50;99.90
23637;DHT22;11995;50.842;4.456;2022-09-17T04:06:24;11.40;99.90
23637;DHT22;11995;50.842;4.456;2022-09-17T04:08:51;11.30;99.90
23637;DHT22;11995;50.842;4.456;2022-09-17T04:11:18;11.30;99.90
23637;DHT22;11995;50.842;4.456;2022-09-17T04:13:45;11.30;99.90
23637;DHT22;11995;50.842;4.456;2022-09-17T04:16:11;11.20;99.90
23637;DHT22;11995;50.842;4.456;2022-09-17T04:18:38;11.00;99.90
23637;DHT22;11995;50.842;4.456;2022-09-17T04:21:05;11.00;99.90
23637;DHT22;11995;50.842;4.456;2022-09-17T04:23:32;11.00;99.90
23637;DHT22;11995;50.842;4.456;2022-09-17T04:25:59;11.00;99.90
23637;DHT22;11995;50.842;4.456;2022-09-17T04:28:26;10.90;99.90
23637;DHT22;11995;50.842;4.456;2022-09-17T04:30:53;10.90;99.90
23637;DHT22;11995;50.842;4.456;2022-09-17T04:33:19;10.70;99.90
23637;DHT22;11995;50.842;4.456;2022-09-17T04:35:46;10.70;99.90
23637;DHT22;11995;50.842;4.456;2022-09-17T04:38:13;10.70;99.90
23637;DHT22;11995;50.842;4.456;2022-09-17T04:40:41;10.70;99.90
23637;DHT22;11995;50.842;4.456;2022-09-17T04:43:08;10.70;99.90
23637;DHT22;11995;50.842;4.456;2022-09-17T04:45:36;10.70;99.90
23637;DHT22;11995;50.842;4.456;2022-09-17T04:48:03;10.70;99.90
23637;DHT22;11995;50.842;4.456;2022-09-17T04:50:30;10.80;99.90
23637;DHT22;11995;50.842;4.456;2022-09-17T04:52:58;10.80;99.90
23637;DHT22;11995;50.842;4.456;2022-09-17T04:55:25;10.80;99.90
23637;DHT22;11995;50.842;4.456;2022-09-17T04:57:52;10.90;99.90
23637;DHT22;11995;50.842;4.456;2022-09-17T05:00:19;11.00;99.90
23637;DHT22;11995;50.842;4.456;2022-09-17T05:02:48;11.00;99.90
23637;DHT22;11995;50.842;4.456;2022-09-17T05:05:16;11.10;99.90
23637;DHT22;11995;50.842;4.456;2022-09-17T05:07:44;11.10;99.90
23637;DHT22;11995;50.842;4.456;2022-09-17T05:10:11;11.10;99.90
23637;DHT22;11995;50.842;4.456;2022-09-17T05:12:38;11.10;99.90
23637;DHT22;11995;50.842;4.456;2022-09-17T05:15:06;11.10;99.90
23637;DHT22;11995;50.842;4.456;2022-09-17T05:17:33;11.20;99.90
23637;DHT22;11995;50.842;4.456;2022-09-17T05:19:59;11.20;99.90
23637;DHT22;11995;50.842;4.456;2022-09-17T05:22:26;11.20;99.90
23637;DHT22;11995;50.842;4.456;2022-09-17T05:24:53;11.20;99.90
23637;DHT22;11995;50.842;4.456;2022-09-17T05:27:20;11.20;99.90
23637;DHT22;11995;50.842;4.456;2022-09-17T05:29:47;11.30;99.90
23637;DHT22;11995;50.842;4.456;2022-09-17T05:32:14;11.20;99.90
23637;DHT22;11995;50.842;4.456;2022-09-17T05:34:40;11.20;99.90
23637;DHT22;11995;50.842;4.456;2022-09-17T05:37:10;11.20;99.90
23637;DHT22;11995;50.842;4.456;2022-09-17T05:39:37;11.30;99.90
23637;DHT22;11995;50.842;4.456;2022-09-17T05:42:04;11.30;99.90
23637;DHT22;11995;50.842;4.456;2022-09-17T05:44:31;11.20;99.90
23637;DHT22;11995;50.842;4.456;2022-09-17T05:46:57;11.30;99.90
23637;DHT22;11995;50.842;4.456;2022-09-17T05:49:24;11.20;99.90
23637;DHT22;11995;50.842;4.456;2022-09-17T05:51:52;11.20;99.90
23637;DHT22;11995;50.842;4.456;2022-09-17T05:54:19;11.20;99.90
23637;DHT22;11995;50.842;4.456;2022-09-17T05:56:46;11.20;99.90
23637;DHT22;11995;50.842;4.456;2022-09-17T05:59:12;11.10;99.90
23637;DHT22;11995;50.842;4.456;2022-09-17T06:01:40;11.00;99.90
23637;DHT22;11995;50.842;4.456;2022-09-17T06:04:07;11.00;99.90
23637;DHT22;11995;50.842;4.456;2022-09-17T06:06:34;10.90;99.90
23637;DHT22;11995;50.842;4.456;2022-09-17T06:09:02;10.90;99.90
23637;DHT22;11995;50.842;4.456;2022-09-17T06:11:29;11.00;99.90
23637;DHT22;11995;50.842;4.456;2022-09-17T06:13:56;10.90;99.90
23637;DHT22;11995;50.842;4.456;2022-09-17T06:16:24;11.00;99.90
23637;DHT22;11995;50.842;4.456;2022-09-17T06:18:50;11.10;99.90
23637;DHT22;11995;50.842;4.456;2022-09-17T06:21:20;11.20;99.90
23637;DHT22;11995;50.842;4.456;2022-09-17T06:23:48;11.30;99.90
23637;DHT22;11995;50.842;4.456;2022-09-17T06:26:15;11.40;99.90
23637;DHT22;11995;50.842;4.456;2022-09-17T06:28:42;11.50;99.90
23637;DHT22;11995;50.842;4.456;2022-09-17T06:31:10;11.50;99.90
23637;DHT22;11995;50.842;4.456;2022-09-17T06:33:37;11.60;99.90
23637;DHT22;11995;50.842;4.456;2022-09-17T06:36:05;11.70;99.90
23637;DHT22;11995;50.842;4.456;2022-09-17T06:38:32;11.70;99.90
23637;DHT22;11995;50.842;4.456;2022-09-17T06:41:00;11.70;99.90
23637;DHT22;11995;50.842;4.456;2022-09-17T06:43:27;11.70;99.90
23637;DHT22;11995;50.842;4.456;2022-09-17T06:45:57;11.70;99.90
23637;DHT22;11995;50.842;4.456;2022-09-17T06:48:25;11.80;99.90
23637;DHT22;11995;50.842;4.456;2022-09-17T06:50:52;11.70;99.90
23637;DHT22;11995;50.842;4.456;2022-09-17T06:53:19;11.60;99.90
23637;DHT22;11995;50.842;4.456;2022-09-17T06:55:46;11.50;99.90
23637;DHT22;11995;50.842;4.456;2022-09-17T06:58:13;11.60;99.90
23637;DHT22;11995;50.842;4.456;2022-09-17T07:00:40;11.60;99.90
23637;DHT22;11995;50.842;4.456;2022-09-17T07:03:07;11.80;99.90
23637;DHT22;11995;50.842;4.456;2022-09-17T07:05:35;11.90;99.90
23637;DHT22;11995;50.842;4.456;2022-09-17T07:08:01;11.90;99.90
23637;DHT22;11995;50.842;4.456;2022-09-17T07:10:29;12.00;99.90
23637;DHT22;11995;50.842;4.456;2022-09-17T07:12:56;12.20;99.90
23637;DHT22;11995;50.842;4.456;2022-09-17T07:15:24;12.50;99.90
23637;DHT22;11995;50.842;4.456;2022-09-17T07:17:52;12.50;99.90
23637;DHT22;11995;50.842;4.456;2022-09-17T07:20:19;12.50;99.90
23637;DHT22;11995;50.842;4.456;2022-09-17T07:22:57;12.50;99.90
23637;DHT22;11995;50.842;4.456;2022-09-17T07:25:24;12.40;99.90
23637;DHT22;11995;50.842;4.456;2022-09-17T07:27:53;12.20;99.90
23637;DHT22;11995;50.842;4.456;2022-09-17T07:30:20;12.20;99.90
23637;DHT22;11995;50.842;4.456;2022-09-17T07:32:47;12.10;99.90
23637;DHT22;11995;50.842;4.456;2022-09-17T07:35:13;11.90;99.90
23637;DHT22;11995;50.842;4.456;2022-09-17T07:37:40;11.90;99.90
23637;DHT22;11995;50.842;4.456;2022-09-17T07:40:07;11.90;99.90
23637;DHT22;11995;50.842;4.456;2022-09-17T07:42:34;12.00;99.90
23637;DHT22;11995;50.842;4.456;2022-09-17T07:45:01;12.10;99.90
23637;DHT22;11995;50.842;4.456;2022-09-17T07:47:28;12.40;99.90
23637;DHT22;11995;50.842;4.456;2022-09-17T07:49:54;12.30;99.90
23637;DHT22;11995;50.842;4.456;2022-09-17T07:52:21;12.30;99.90
23637;DHT22;11995;50.842;4.456;2022-09-17T07:54:49;12.50;99.90
23637;DHT22;11995;50.842;4.456;2022-09-17T07:57:17;12.50;99.90
23637;DHT22;11995;50.842;4.456;2022-09-17T07:59:44;12.50;99.90
23637;DHT22;11995;50.842;4.456;2022-09-17T08:02:11;12.60;99.90
23637;DHT22;11995;50.842;4.456;2022-09-17T08:04:40;12.60;99.90
23637;DHT22;11995;50.842;4.456;2022-09-17T08:07:12;12.60;99.90
23637;DHT22;11995;50.842;4.456;2022-09-17T08:09:36;12.70;99.90
23637;DHT22;11995;50.842;4.456;2022-09-17T08:12:03;12.70;99.90
23637;DHT22;11995;50.842;4.456;2022-09-17T08:14:31;12.70;99.90
23637;DHT22;11995;50.842;4.456;2022-09-17T08:16:58;12.80;99.90
23637;DHT22;11995;50.842;4.456;2022-09-17T08:19:24;12.70;99.90
23637;DHT22;11995;50.842;4.456;2022-09-17T08:21:53;12.70;99.90
23637;DHT22;11995;50.842;4.456;2022-09-17T08:24:21;12.70;99.90
23637;DHT22;11995;50.842;4.456;2022-09-17T08:26:50;12.80;99.90
23637;DHT22;11995;50.842;4.456;2022-09-17T08:29:17;13.00;99.90
23637;DHT22;11995;50.842;4.456;2022-09-17T08:31:44;12.90;99.90
23637;DHT22;11995;50.842;4.456;2022-09-17T08:34:11;12.90;99.90
23637;DHT22;11995;50.842;4.456;2022-09-17T08:36:39;12.80;99.90
23637;DHT22;11995;50.842;4.456;2022-09-17T08:39:05;12.80;99.90
23637;DHT22;11995;50.842;4.456;2022-09-17T08:44:26;12.90;99.90
23637;DHT22;11995;50.842;4.456;2022-09-17T08:46:58;13.00;99.90
23637;DHT22;11995;50.842;4.456;2022-09-17T08:54:49;13.20;99.90
23637;DHT22;11995;50.842;4.456;2022-09-17T08:59:50;13.40;99.90
23637;DHT22;11995;50.842;4.456;2022-09-17T09:02:23;13.50;99.90
23637;DHT22;11995;50.842;4.456;2022-09-17T09:05:03;13.40;99.90
23637;DHT22;11995;50.842;4.456;2022-09-17T09:07:33;13.40;99.90
23637;DHT22;11995;50.842;4.456;2022-09-17T09:12:34;13.60;99.90
23637;DHT22;11995;50.842;4.456;2022-09-17T09:15:17;13.70;99.90
23637;DHT22;11995;50.842;4.456;2022-09-17T09:17:43;13.70;99.90
23637;DHT22;11995;50.842;4.456;2022-09-17T09:20:30;13.60;99.90
23637;DHT22;11995;50.842;4.456;2022-09-17T09:22:45;13.50;99.90
23637;DHT22;11995;50.842;4.456;2022-09-17T09:25:24;13.30;99.90
23637;DHT22;11995;50.842;4.456;2022-09-17T09:31:00;13.10;99.90
23637;DHT22;11995;50.842;4.456;2022-09-17T09:33:35;13.20;99.90
23637;DHT22;11995;50.842;4.456;2022-09-17T09:36:09;13.30;99.90
23637;DHT22;11995;50.842;4.456;2022-09-17T09:38:35;13.30;99.90
23637;DHT22;11995;50.842;4.456;2022-09-17T09:41:12;13.40;99.90
23637;DHT22;11995;50.842;4.456;2022-09-17T09:43:47;13.60;99.90
23637;DHT22;11995;50.842;4.456;2022-09-17T09:49:17;13.90;99.90
23637;DHT22;11995;50.842;4.456;2022-09-17T09:57:04;13.70;99.90
23637;DHT22;11995;50.842;4.456;2022-09-17T09:59:32;13.50;99.90
23637;DHT22;11995;50.842;4.456;2022-09-17T10:02:01;13.40;99.90
23637;DHT22;11995;50.842;4.456;2022-09-17T10:04:28;13.50;99.90
23637;DHT22;11995;50.842;4.456;2022-09-17T10:07:00;13.80;99.90
23637;DHT22;11995;50.842;4.456;2022-09-17T10:09:31;13.80;99.90
23637;DHT22;11995;50.842;4.456;2022-09-17T10:14:37;14.00;99.90
23637;DHT22;11995;50.842;4.456;2022-09-17T10:17:11;13.60;99.90
23637;DHT22;11995;50.842;4.456;2022-09-17T10:19:38;13.60;99.90
23637;DHT22;11995;50.842;4.456;2022-09-17T10:22:18;13.70;99.90
23637;DHT22;11995;50.842;4.456;2022-09-17T10:24:45;13.80;99.90
23637;DHT22;11995;50.842;4.456;2022-09-17T10:27:13;13.80;99.90
23637;DHT22;11995;50.842;4.456;2022-09-17T10:29:47;13.70;99.90
23637;DHT22;11995;50.842;4.456;2022-09-17T10:32:15;13.60;99.90
23637;DHT22;11995;50.842;4.456;2022-09-17T10:34:56;13.50;99.90
23637;DHT22;11995;50.842;4.456;2022-09-17T10:39:56;13.70;99.90
23637;DHT22;11995;50.842;4.456;2022-09-17T10:42:22;14.00;99.90
23637;DHT22;11995;50.842;4.456;2022-09-17T10:44:53;13.90;99.90
23637;DHT22;11995;50.842;4.456;2022-09-17T10:47:22;13.90;99.90
23637;DHT22;11995;50.842;4.456;2022-09-17T10:49:53;13.80;99.90
23637;DHT22;11995;50.842;4.456;2022-09-17T10:52:24;13.90;99.90
23637;DHT22;11995;50.842;4.456;2022-09-17T10:57:23;14.10;99.90
23637;DHT22;11995;50.842;4.456;2022-09-17T10:59:55;14.10;99.90
23637;DHT22;11995;50.842;4.456;2022-09-17T11:07:32;14.50;99.90
23637;DHT22;11995;50.842;4.456;2022-09-17T11:12:49;14.40;99.90
23637;DHT22;11995;50.842;4.456;2022-09-17T11:15:35;14.40;99.90
23637;DHT22;11995;50.842;4.456;2022-09-17T11:20:35;14.40;99.90
23637;DHT22;11995;50.842;4.456;2022-09-17T11:23:17;14.40;99.90
23637;DHT22;11995;50.842;4.456;2022-09-17T11:25:49;14.20;99.90
23637;DHT22;11995;50.842;4.456;2022-09-17T11:33:40;13.60;99.90
23637;DHT22;11995;50.842;4.456;2022-09-17T11:36:12;13.40;99.90
23637;DHT22;11995;50.842;4.456;2022-09-17T11:38:41;13.40;99.90
23637;DHT22;11995;50.842;4.456;2022-09-17T11:41:09;13.40;99.90
23637;DHT22;11995;50.842;4.456;2022-09-17T11:43:37;13.30;99.90
23637;DHT22;11995;50.842;4.456;2022-09-17T11:46:15;13.40;99.90
23637;DHT22;11995;50.842;4.456;2022-09-17T11:49:01;13.70;99.90
23637;DHT22;11995;50.842;4.456;2022-09-17T11:53:52;14.10;99.90
23637;DHT22;11995;50.842;4.456;2022-09-17T11:56:23;14.20;99.90
23637;DHT22;11995;50.842;4.456;2022-09-17T11:58:51;13.90;99.90
23637;DHT22;11995;50.842;4.456;2022-09-17T12:01:35;14.00;99.90
23637;DHT22;11995;50.842;4.456;2022-09-17T12:04:09;14.10;99.90
23637;DHT22;11995;50.842;4.456;2022-09-17T12:06:43;14.50;99.90
23637;DHT22;11995;50.842;4.456;2022-09-17T12:09:13;14.70;99.90
23637;DHT22;11995;50.842;4.456;2022-09-17T12:11:44;14.80;99.90
23637;DHT22;11995;50.842;4.456;2022-09-17T12:14:14;14.60;99.90
23637;DHT22;11995;50.842;4.456;2022-09-17T12:16:39;14.40;99.90
23637;DHT22;11995;50.842;4.456;2022-09-17T12:19:13;14.20;99.90
23637;DHT22;11995;50.842;4.456;2022-09-17T12:21:41;14.10;99.90
23637;DHT22;11995;50.842;4.456;2022-09-17T12:24:19;14.00;99.90
23637;DHT22;11995;50.842;4.456;2022-09-17T12:32:26;14.00;99.90
23637;DHT22;11995;50.842;4.456;2022-09-17T12:37:39;14.20;99.90
23637;DHT22;11995;50.842;4.456;2022-09-17T12:40:19;14.20;99.90
23637;DHT22;11995;50.842;4.456;2022-09-17T12:42:58;14.30;99.90
23637;DHT22;11995;50.842;4.456;2022-09-17T12:45:29;14.50;99.90
23637;DHT22;11995;50.842;4.456;2022-09-17T12:58:34;14.50;99.90
23637;DHT22;11995;50.842;4.456;2022-09-17T13:03:44;14.00;99.90
23637;DHT22;11995;50.842;4.456;2022-09-17T13:09:02;13.70;99.90
23637;DHT22;11995;50.842;4.456;2022-09-17T13:17:04;13.50;99.90
23637;DHT22;11995;50.842;4.456;2022-09-17T13:19:38;13.40;99.90
23637;DHT22;11995;50.842;4.456;2022-09-17T13:22:11;13.40;99.90
23637;DHT22;11995;50.842;4.456;2022-09-17T13:24:37;13.40;99.90
23637;DHT22;11995;50.842;4.456;2022-09-17T13:27:05;13.40;99.90
23637;DHT22;11995;50.842;4.456;2022-09-17T13:37:25;13.80;99.90
23637;DHT22;11995;50.842;4.456;2022-09-17T13:39:53;13.90;99.90
23637;DHT22;11995;50.842;4.456;2022-09-17T13:44:52;14.10;99.90
23637;DHT22;11995;50.842;4.456;2022-09-17T13:47:27;14.20;99.90
23637;DHT22;11995;50.842;4.456;2022-09-17T13:49:51;14.30;99.90
23637;DHT22;11995;50.842;4.456;2022-09-17T13:52:32;14.40;99.90
23637;DHT22;11995;50.842;4.456;2022-09-17T13:54:55;14.50;99.90
23637;DHT22;11995;50.842;4.456;2022-09-17T13:57:22;14.60;99.90
23637;DHT22;11995;50.842;4.456;2022-09-17T13:59:53;14.70;99.90
23637;DHT22;11995;50.842;4.456;2022-09-17T14:04:53;14.80;99.90
23637;DHT22;11995;50.842;4.456;2022-09-17T14:09:57;14.90;99.90
23637;DHT22;11995;50.842;4.456;2022-09-17T14:17:51;15.10;99.90
23637;DHT22;11995;50.842;4.456;2022-09-17T14:20:23;15.30;99.90
23637;DHT22;11995;50.842;4.456;2022-09-17T14:23:00;15.30;99.90
23637;DHT22;11995;50.842;4.456;2022-09-17T14:25:26;15.50;99.90
23637;DHT22;11995;50.842;4.456;2022-09-17T14:27:51;15.70;99.90
23637;DHT22;11995;50.842;4.456;2022-09-17T14:30:21;15.60;99.90
23637;DHT22;11995;50.842;4.456;2022-09-17T14:35:44;15.30;99.90
23637;DHT22;11995;50.842;4.456;2022-09-17T14:38:26;15.10;99.90
23637;DHT22;11995;50.842;4.456;2022-09-17T14:40:58;14.80;99.90
23637;DHT22;11995;50.842;4.456;2022-09-17T14:43:33;14.60;99.90
23637;DHT22;11995;50.842;4.456;2022-09-17T14:45:55;14.30;99.90
23637;DHT22;11995;50.842;4.456;2022-09-17T14:48:25;14.10;99.90
23637;DHT22;11995;50.842;4.456;2022-09-17T14:50:51;14.00;99.90
23637;DHT22;11995;50.842;4.456;2022-09-17T14:53:18;13.90;99.90
23637;DHT22;11995;50.842;4.456;2022-09-17T14:55:46;13.80;99.90
23637;DHT22;11995;50.842;4.456;2022-09-17T14:58:28;13.70;99.90
23637;DHT22;11995;50.842;4.456;2022-09-17T15:00:51;13.60;99.90
23637;DHT22;11995;50.842;4.456;2022-09-17T15:03:23;13.60;99.90
23637;DHT22;11995;50.842;4.456;2022-09-17T15:05:47;13.60;99.90
23637;DHT22;11995;50.842;4.456;2022-09-17T15:08:17;13.60;99.90
23637;DHT22;11995;50.842;4.456;2022-09-17T15:10:51;13.70;99.90
23637;DHT22;11995;50.842;4.456;2022-09-17T15:13:19;13.70;99.90
23637;DHT22;11995;50.842;4.456;2022-09-17T15:16:00;13.70;99.90
23637;DHT22;11995;50.842;4.456;2022-09-17T15:18:26;13.70;99.90
23637;DHT22;11995;50.842;4.456;2022-09-17T15:20:54;13.80;99.90
23637;DHT22;11995;50.842;4.456;2022-09-17T15:23:24;13.80;99.90
23637;DHT22;11995;50.842;4.456;2022-09-17T15:25:54;13.80;99.90
23637;DHT22;11995;50.842;4.456;2022-09-17T15:28:25;13.80;99.90
23637;DHT22;11995;50.842;4.456;2022-09-17T15:30:49;13.90;99.90
23637;DHT22;11995;50.842;4.456;2022-09-17T15:33:16;14.00;99.90
23637;DHT22;11995;50.842;4.456;2022-09-17T15:36:01;14.00;99.90
23637;DHT22;11995;50.842;4.456;2022-09-17T15:38:26;13.90;99.90
23637;DHT22;11995;50.842;4.456;2022-09-17T15:40:53;13.90;99.90
23637;DHT22;11995;50.842;4.456;2022-09-17T15:43:29;14.00;99.90
23637;DHT22;11995;50.842;4.456;2022-09-17T15:48:43;14.00;99.90
23637;DHT22;11995;50.842;4.456;2022-09-17T15:53:52;14.20;99.90
23637;DHT22;11995;50.842;4.456;2022-09-17T15:56:21;14.30;99.90
23637;DHT22;11995;50.842;4.456;2022-09-17T16:04:02;14.00;99.90
23637;DHT22;11995;50.842;4.456;2022-09-17T16:08:57;13.90;99.90
23637;DHT22;11995;50.842;4.456;2022-09-17T16:11:24;13.80;99.90
23637;DHT22;11995;50.842;4.456;2022-09-17T16:13:52;13.60;99.90
23637;DHT22;11995;50.842;4.456;2022-09-17T16:16:20;13.50;99.90
23637;DHT22;11995;50.842;4.456;2022-09-17T16:18:48;13.40;99.90
23637;DHT22;11995;50.842;4.456;2022-09-17T16:21:17;13.50;99.90
23637;DHT22;11995;50.842;4.456;2022-09-17T16:23:43;13.50;99.90
23637;DHT22;11995;50.842;4.456;2022-09-17T16:26:29;13.40;99.90
23637;DHT22;11995;50.842;4.456;2022-09-17T16:28:41;13.40;99.90
23637;DHT22;11995;50.842;4.456;2022-09-17T16:31:10;13.30;99.90
23637;DHT22;11995;50.842;4.456;2022-09-17T16:33:37;13.40;99.90
23637;DHT22;11995;50.842;4.456;2022-09-17T16:36:03;13.30;99.90
23637;DHT22;11995;50.842;4.456;2022-09-17T16:38:31;13.30;99.90
23637;DHT22;11995;50.842;4.456;2022-09-17T16:40:57;13.20;99.90
23637;DHT22;11995;50.842;4.456;2022-09-17T16:43:24;13.10;99.90
23637;DHT22;11995;50.842;4.456;2022-09-17T16:46:04;13.10;99.90
23637;DHT22;11995;50.842;4.456;2022-09-17T16:48:31;13.00;99.90
23637;DHT22;11995;50.842;4.456;2022-09-17T16:50:59;13.00;99.90
23637;DHT22;11995;50.842;4.456;2022-09-17T16:53:29;13.00;99.90
23637;DHT22;11995;50.842;4.456;2022-09-17T16:55:59;13.10;99.90
23637;DHT22;11995;50.842;4.456;2022-09-17T16:58:26;13.00;99.90
23637;DHT22;11995;50.842;4.456;2022-09-17T17:00:53;13.00;99.90
23637;DHT22;11995;50.842;4.456;2022-09-17T17:03:19;13.00;99.90
23637;DHT22;11995;50.842;4.456;2022-09-17T17:05:46;12.90;99.90
23637;DHT22;11995;50.842;4.456;2022-09-17T17:08:13;12.80;99.90
23637;DHT22;11995;50.842;4.456;2022-09-17T17:10:40;12.90;99.90
23637;DHT22;11995;50.842;4.456;2022-09-17T17:13:10;12.90;99.90
23637;DHT22;11995;50.842;4.456;2022-09-17T17:15:38;13.00;99.90
23637;DHT22;11995;50.842;4.456;2022-09-17T17:18:08;13.00;99.90
23637;DHT22;11995;50.842;4.456;2022-09-17T17:20:37;13.00;99.90
23637;DHT22;11995;50.842;4.456;2022-09-17T17:23:04;12.80;99.90
23637;DHT22;11995;50.842;4.456;2022-09-17T17:25:31;12.80;99.90
23637;DHT22;11995;50.842;4.456;2022-09-17T17:28:04;12.90;99.90
23637;DHT22;11995;50.842;4.456;2022-09-17T17:30:30;12.90;99.90
23637;DHT22;11995;50.842;4.456;2022-09-17T17:32:59;12.80;99.90
23637;DHT22;11995;50.842;4.456;2022-09-17T17:35:28;12.70;99.90
23637;DHT22;11995;50.842;4.456;2022-09-17T17:37:55;12.70;99.90
23637;DHT22;11995;50.842;4.456;2022-09-17T17:40:22;12.70;99.90
23637;DHT22;11995;50.842;4.456;2022-09-17T17:42:52;12.60;99.90
23637;DHT22;11995;50.842;4.456;2022-09-17T17:45:19;12.60;99.90
23637;DHT22;11995;50.842;4.456;2022-09-17T17:47:47;12.70;99.90
23637;DHT22;11995;50.842;4.456;2022-09-17T17:50:14;12.70;99.90
23637;DHT22;11995;50.842;4.456;2022-09-17T17:52:41;12.80;99.90
23637;DHT22;11995;50.842;4.456;2022-09-17T17:55:09;12.70;99.90
23637;DHT22;11995;50.842;4.456;2022-09-17T17:57:37;12.60;99.90
23637;DHT22;11995;50.842;4.456;2022-09-17T18:00:04;12.70;99.90
23637;DHT22;11995;50.842;4.456;2022-09-17T18:02:31;12.70;99.90